sensor_id;sensor_type;location;lat;lon;timestamp;pressure;altitude;pressure_sealevel;temperature;humidity
71974;BME280;59840;52.122;5.404;2023-03-04T00:00:03;102821.84;;;5.13;79.88
71974;BME280;59840;52.122;5.404;2023-03-04T00:02:30;102814.97;;;5.12;80.21
71974;BME280;59840;52.122;5.404;2023-03-04T00:04:56;102819.41;;;5.12;80.57
71974;BME280;59840;52.122;5.404;2023-03-04T00:07:23;102820.22;;;5.12;80.75
71974;BME280;59840;52.122;5.404;2023-03-04T00:09:49;102819.41;;;5.12;80.19
71974;BME280;59840;52.122;5.404;2023-03-04T00:12:16;102824.63;;;5.12;80.82
71974;BME280;59840;52.122;5.404;2023-03-04T00:14:42;102815.28;;;5.09;80.23
71974;BME280;59840;52.122;5.404;2023-03-04T00:17:09;102824.63;;;5.12;80.60
71974;BME280;59840;52.122;5.404;2023-03-04T00:19:35;102818.41;;;5.13;80.88
71974;BME280;59840;52.122;5.404;2023-03-04T00:22:03;102819.56;;;5.10;80.95
71974;BME280;59840;52.122;5.404;2023-03-04T00:24:30;102825.59;;;5.11;80.89
71974;BME280;59840;52.122;5.404;2023-03-04T00:26:57;102818.56;;;5.11;80.75
71974;BME280;59840;52.122;5.404;2023-03-04T00:29:24;102818.25;;;5.14;80.96
71974;BME280;59840;52.122;5.404;2023-03-04T00:31:51;102817.28;;;5.15;80.66
71974;BME280;59840;52.122;5.404;2023-03-04T00:34:17;102830.06;;;5.18;80.59
71974;BME280;59840;52.122;5.404;2023-03-04T00:36:44;102817.94;;;5.17;81.36
71974;BME280;59840;52.122;5.404;2023-03-04T00:39:11;102823.34;;;5.16;81.36
71974;BME280;59840;52.122;5.404;2023-03-04T00:41:39;102820.88;;;5.14;81.46
71974;BME280;59840;52.122;5.404;2023-03-04T00:44:05;102826.44;;;5.11;81.90
71974;BME280;59840;52.122;5.404;2023-03-04T00:46:32;102822.16;;;5.10;81.66
71974;BME280;59840;52.122;5.404;2023-03-04T00:48:59;102814.97;;;5.12;81.90
71974;BME280;59840;52.122;5.404;2023-03-04T00:51:26;102816.94;;;5.10;82.58
71974;BME280;59840;52.122;5.404;2023-03-04T00:53:52;102816.13;;;5.10;82.31
71974;BME280;59840;52.122;5.404;2023-03-04T00:56:19;102821.50;;;5.08;81.80
71974;BME280;59840;52.122;5.404;2023-03-04T00:58:45;102824.13;;;5.08;82.62
71974;BME280;59840;52.122;5.404;2023-03-04T01:01:12;102828.38;;;5.09;81.99
71974;BME280;59840;52.122;5.404;2023-03-04T01:03:39;102824.78;;;5.10;81.77
71974;BME280;59840;52.122;5.404;2023-03-04T01:06:07;102828.38;;;5.09;82.48
71974;BME280;59840;52.122;5.404;2023-03-04T01:08:34;102818.88;;;5.08;81.81
71974;BME280;59840;52.122;5.404;2023-03-04T01:11:00;102815.63;;;5.06;82.28
71974;BME280;59840;52.122;5.404;2023-03-04T01:13:27;102823.31;;;5.08;82.21
71974;BME280;59840;52.122;5.404;2023-03-04T01:15:53;102823.31;;;5.08;81.61
71974;BME280;59840;52.122;5.404;2023-03-04T01:18:21;102820.84;;;5.06;82.12
71974;BME280;59840;52.122;5.404;2023-03-04T01:20:47;102821.81;;;5.05;82.89
71974;BME280;59840;52.122;5.404;2023-03-04T01:23:14;102814.94;;;5.04;82.46
71974;BME280;59840;52.122;5.404;2023-03-04T01:25:41;102821.16;;;5.03;82.82
71974;BME280;59840;52.122;5.404;2023-03-04T01:28:07;102811.66;;;5.02;83.04
71974;BME280;59840;52.122;5.404;2023-03-04T01:30:34;102807.91;;;5.04;82.59
71974;BME280;59840;52.122;5.404;2023-03-04T01:33:00;102803.81;;;5.02;82.35
71974;BME280;59840;52.122;5.404;2023-03-04T01:35:27;102806.28;;;5.03;81.85
71974;BME280;59840;52.122;5.404;2023-03-04T01:37:53;102797.47;;;5.04;81.90
71974;BME280;59840;52.122;5.404;2023-03-04T01:40:20;102794.03;;;5.04;81.37
71974;BME280;59840;52.122;5.404;2023-03-04T01:42:47;102792.22;;;5.04;80.92
71974;BME280;59840;52.122;5.404;2023-03-04T01:45:17;102797.13;;;5.08;80.90
71974;BME280;59840;52.122;5.404;2023-03-04T01:47:45;102786.66;;;5.08;80.53
71974;BME280;59840;52.122;5.404;2023-03-04T01:50:33;102786.66;;;5.08;80.44
71974;BME280;59840;52.122;5.404;2023-03-04T01:53:01;102786.50;;;5.09;80.84
71974;BME280;59840;52.122;5.404;2023-03-04T01:55:29;102778.97;;;5.06;81.09
71974;BME280;59840;52.122;5.404;2023-03-04T01:57:56;102787.00;;;5.04;81.19
71974;BME280;59840;52.122;5.404;2023-03-04T02:00:31;102776.03;;;5.09;80.16
71974;BME280;59840;52.122;5.404;2023-03-04T02:03:02;102776.38;;;5.06;80.68
71974;BME280;59840;52.122;5.404;2023-03-04T02:05:30;102773.75;;;5.06;80.21
71974;BME280;59840;52.122;5.404;2023-03-04T02:07:58;102765.91;;;5.06;80.67
71974;BME280;59840;52.122;5.404;2023-03-04T02:10:26;102768.00;;;5.02;80.06
71974;BME280;59840;52.122;5.404;2023-03-04T02:12:53;102760.50;;;5.08;80.33
71974;BME280;59840;52.122;5.404;2023-03-04T02:15:20;102756.41;;;5.05;79.92
71974;BME280;59840;52.122;5.404;2023-03-04T02:17:47;102759.19;;;5.03;80.29
71974;BME280;59840;52.122;5.404;2023-03-04T02:23:15;102747.59;;;5.06;80.63
71974;BME280;59840;52.122;5.404;2023-03-04T02:28:35;102750.38;;;5.04;80.12
71974;BME280;59840;52.122;5.404;2023-03-04T02:31:02;102753.78;;;5.05;80.09
71974;BME280;59840;52.122;5.404;2023-03-04T02:33:29;102738.75;;;5.07;79.89
71974;BME280;59840;52.122;5.404;2023-03-04T02:35:56;102747.75;;;5.04;80.32
71974;BME280;59840;52.122;5.404;2023-03-04T02:38:22;102742.50;;;5.04;79.83
71974;BME280;59840;52.122;5.404;2023-03-04T02:40:51;102740.06;;;5.03;79.92
71974;BME280;59840;52.122;5.404;2023-03-04T02:43:20;102737.44;;;5.03;80.60
71974;BME280;59840;52.122;5.404;2023-03-04T02:45:49;102735.97;;;5.00;80.28
71974;BME280;59840;52.122;5.404;2023-03-04T02:48:20;102736.47;;;5.04;80.02
71974;BME280;59840;52.122;5.404;2023-03-04T02:50:50;102733.84;;;5.04;80.57
71974;BME280;59840;52.122;5.404;2023-03-04T02:53:18;102736.78;;;5.01;80.53
71974;BME280;59840;52.122;5.404;2023-03-04T02:55:46;102728.28;;;4.99;80.36
71974;BME280;59840;52.122;5.404;2023-03-04T02:58:13;102740.69;;;4.97;80.07
71974;BME280;59840;52.122;5.404;2023-03-04T03:00:39;102726.47;;;4.99;80.59
71974;BME280;59840;52.122;5.404;2023-03-04T03:03:06;102732.84;;;4.97;79.34
71974;BME280;59840;52.122;5.404;2023-03-04T03:05:34;102738.06;;;4.97;79.03
71974;BME280;59840;52.122;5.404;2023-03-04T03:08:00;102735.47;;;4.97;78.15
71974;BME280;59840;52.122;5.404;2023-03-04T03:10:27;102726.28;;;4.93;78.84
71974;BME280;59840;52.122;5.404;2023-03-04T03:12:54;102722.53;;;4.95;79.33
71974;BME280;59840;52.122;5.404;2023-03-04T03:15:20;102721.06;;;4.93;78.97
71974;BME280;59840;52.122;5.404;2023-03-04T03:17:47;102710.75;;;4.91;79.32
71974;BME280;59840;52.122;5.404;2023-03-04T03:20:15;102709.78;;;4.92;79.40
71974;BME280;59840;52.122;5.404;2023-03-04T03:22:42;102710.91;;;4.90;79.32
71974;BME280;59840;52.122;5.404;2023-03-04T03:25:10;102706.19;;;4.93;78.39
71974;BME280;59840;52.122;5.404;2023-03-04T03:27:37;102698.19;;;4.95;78.73
71974;BME280;59840;52.122;5.404;2023-03-04T03:30:04;102707.66;;;4.96;78.87
71974;BME280;59840;52.122;5.404;2023-03-04T03:32:31;102697.34;;;4.94;78.63
71974;BME280;59840;52.122;5.404;2023-03-04T03:34:57;102700.78;;;4.95;78.96
71974;BME280;59840;52.122;5.404;2023-03-04T03:37:24;102701.13;;;4.92;79.27
71974;BME280;59840;52.122;5.404;2023-03-04T03:39:50;102701.94;;;4.92;79.75
71974;BME280;59840;52.122;5.404;2023-03-04T03:42:17;102701.94;;;4.92;79.67
71974;BME280;59840;52.122;5.404;2023-03-04T03:44:44;102702.59;;;4.94;79.66
71974;BME280;59840;52.122;5.404;2023-03-04T03:47:10;102705.03;;;4.96;79.60
71974;BME280;59840;52.122;5.404;2023-03-04T03:49:37;102706.84;;;4.95;79.31
71974;BME280;59840;52.122;5.404;2023-03-04T03:52:03;102701.78;;;4.94;79.86
71974;BME280;59840;52.122;5.404;2023-03-04T03:54:30;102699.00;;;4.95;79.60
71974;BME280;59840;52.122;5.404;2023-03-04T03:56:56;102705.03;;;4.96;80.38
71974;BME280;59840;52.122;5.404;2023-03-04T03:59:23;102700.78;;;4.95;80.58
71974;BME280;59840;52.122;5.404;2023-03-04T04:01:49;102714.84;;;4.94;80.73
71974;BME280;59840;52.122;5.404;2023-03-04T04:04:16;102703.88;;;4.90;82.04
71974;BME280;59840;52.122;5.404;2023-03-04T04:06:43;102705.19;;;4.86;82.76
71974;BME280;59840;52.122;5.404;2023-03-04T04:09:09;102719.25;;;4.85;83.40
71974;BME280;59840;52.122;5.404;2023-03-04T04:11:36;102717.78;;;4.83;83.70
71974;BME280;59840;52.122;5.404;2023-03-04T04:14:03;102709.94;;;4.83;84.29
71974;BME280;59840;52.122;5.404;2023-03-04T04:16:29;102722.38;;;4.81;84.26
71974;BME280;59840;52.122;5.404;2023-03-04T04:18:56;102714.00;;;4.77;83.76
71974;BME280;59840;52.122;5.404;2023-03-04T04:21:22;102717.44;;;4.78;83.59
71974;BME280;59840;52.122;5.404;2023-03-04T04:23:49;102711.91;;;4.81;83.29
71974;BME280;59840;52.122;5.404;2023-03-04T04:26:15;102704.72;;;4.83;82.84
71974;BME280;59840;52.122;5.404;2023-03-04T04:28:42;102712.72;;;4.81;82.48
71974;BME280;59840;52.122;5.404;2023-03-04T04:31:09;102713.53;;;4.82;83.17
71974;BME280;59840;52.122;5.404;2023-03-04T04:33:35;102715.50;;;4.80;82.76
71974;BME280;59840;52.122;5.404;2023-03-04T04:36:03;102711.41;;;4.77;83.11
71974;BME280;59840;52.122;5.404;2023-03-04T04:38:30;102708.63;;;4.79;82.85
71974;BME280;59840;52.122;5.404;2023-03-04T04:40:58;102719.91;;;4.79;82.70
71974;BME280;59840;52.122;5.404;2023-03-04T04:43:25;102715.66;;;4.78;82.75
71974;BME280;59840;52.122;5.404;2023-03-04T04:45:52;102712.22;;;4.78;83.18
71974;BME280;59840;52.122;5.404;2023-03-04T04:48:18;102716.63;;;4.77;82.27
71974;BME280;59840;52.122;5.404;2023-03-04T04:50:45;102715.50;;;4.80;81.95
71974;BME280;59840;52.122;5.404;2023-03-04T04:53:12;102716.97;;;4.82;82.65
71974;BME280;59840;52.122;5.404;2023-03-04T04:55:39;102721.38;;;4.82;82.28
71974;BME280;59840;52.122;5.404;2023-03-04T04:58:06;102715.34;;;4.81;82.47
71974;BME280;59840;52.122;5.404;2023-03-04T05:00:33;102715.00;;;4.76;81.89
71974;BME280;59840;52.122;5.404;2023-03-04T05:02:59;102713.84;;;4.79;81.33
71974;BME280;59840;52.122;5.404;2023-03-04T05:05:26;102711.91;;;4.81;81.35
71974;BME280;59840;52.122;5.404;2023-03-04T05:07:52;102708.00;;;4.85;81.45
71974;BME280;59840;52.122;5.404;2023-03-04T05:10:19;102705.53;;;4.83;81.64
71974;BME280;59840;52.122;5.404;2023-03-04T05:12:45;102705.69;;;4.82;81.98
71974;BME280;59840;52.122;5.404;2023-03-04T05:15:12;102705.84;;;4.80;82.30
71974;BME280;59840;52.122;5.404;2023-03-04T05:17:38;102704.88;;;4.81;82.08
71974;BME280;59840;52.122;5.404;2023-03-04T05:20:05;102704.06;;;4.81;82.38
71974;BME280;59840;52.122;5.404;2023-03-04T05:22:32;102704.53;;;4.76;82.86
71974;BME280;59840;52.122;5.404;2023-03-04T05:24:59;102707.16;;;4.76;82.69
71974;BME280;59840;52.122;5.404;2023-03-04T05:27:25;102703.72;;;4.76;83.09
71974;BME280;59840;52.122;5.404;2023-03-04T05:29:52;102709.44;;;4.79;82.88
71974;BME280;59840;52.122;5.404;2023-03-04T05:32:20;102710.25;;;4.80;82.39
71974;BME280;59840;52.122;5.404;2023-03-04T05:34:47;102704.38;;;4.78;83.54
71974;BME280;59840;52.122;5.404;2023-03-04T05:37:14;102713.03;;;4.78;83.80
71974;BME280;59840;52.122;5.404;2023-03-04T05:39:40;102708.78;;;4.77;83.88
71974;BME280;59840;52.122;5.404;2023-03-04T05:42:07;102706.16;;;4.77;83.42
71974;BME280;59840;52.122;5.404;2023-03-04T05:44:33;102711.72;;;4.74;84.27
71974;BME280;59840;52.122;5.404;2023-03-04T05:47:00;102712.03;;;4.71;84.63
71974;BME280;59840;52.122;5.404;2023-03-04T05:49:26;102705.00;;;4.71;84.58
71974;BME280;59840;52.122;5.404;2023-03-04T05:51:53;102712.84;;;4.71;84.74
71974;BME280;59840;52.122;5.404;2023-03-04T05:54:19;102706.97;;;4.69;84.37
71974;BME280;59840;52.122;5.404;2023-03-04T05:56:47;102710.41;;;4.70;85.00
71974;BME280;59840;52.122;5.404;2023-03-04T05:59:13;102706.97;;;4.69;84.40
71974;BME280;59840;52.122;5.404;2023-03-04T06:01:46;102708.75;;;4.69;85.06
71974;BME280;59840;52.122;5.404;2023-03-04T06:04:13;102709.41;;;4.71;84.72
71974;BME280;59840;52.122;5.404;2023-03-04T06:06:39;102708.28;;;4.74;84.91
71974;BME280;59840;52.122;5.404;2023-03-04T06:09:06;102712.03;;;4.71;85.46
71974;BME280;59840;52.122;5.404;2023-03-04T06:11:32;102710.25;;;4.71;85.34
71974;BME280;59840;52.122;5.404;2023-03-04T06:14:01;102708.59;;;4.70;85.09
71974;BME280;59840;52.122;5.404;2023-03-04T06:16:28;102712.03;;;4.71;85.61
71974;BME280;59840;52.122;5.404;2023-03-04T06:18:55;102706.13;;;4.69;85.11
71974;BME280;59840;52.122;5.404;2023-03-04T06:21:21;102711.22;;;4.70;85.47
71974;BME280;59840;52.122;5.404;2023-03-04T06:23:48;102714.50;;;4.72;85.35
71974;BME280;59840;52.122;5.404;2023-03-04T06:26:14;102715.47;;;4.71;84.91
71974;BME280;59840;52.122;5.404;2023-03-04T06:28:42;102711.88;;;4.72;85.56
71974;BME280;59840;52.122;5.404;2023-03-04T06:31:09;102719.72;;;4.72;85.57
71974;BME280;59840;52.122;5.404;2023-03-04T06:33:36;102713.66;;;4.72;86.24
71974;BME280;59840;52.122;5.404;2023-03-04T06:36:03;102713.84;;;4.70;86.16
71974;BME280;59840;52.122;5.404;2023-03-04T06:38:29;102719.88;;;4.71;86.20
71974;BME280;59840;52.122;5.404;2023-03-04T06:40:56;102721.69;;;4.70;86.68
71974;BME280;59840;52.122;5.404;2023-03-04T06:43:23;102718.41;;;4.68;86.47
71974;BME280;59840;52.122;5.404;2023-03-04T06:45:49;102724.94;;;4.72;86.58
71974;BME280;59840;52.122;5.404;2023-03-04T06:48:16;102723.97;;;4.74;87.22
71974;BME280;59840;52.122;5.404;2023-03-04T06:50:42;102721.34;;;4.74;86.63
71974;BME280;59840;52.122;5.404;2023-03-04T06:53:09;102719.41;;;4.76;86.98
71974;BME280;59840;52.122;5.404;2023-03-04T06:55:35;102723.00;;;4.75;87.30
71974;BME280;59840;52.122;5.404;2023-03-04T06:58:02;102726.91;;;4.70;86.65
71974;BME280;59840;52.122;5.404;2023-03-04T07:00:28;102731.81;;;4.74;87.49
71974;BME280;59840;52.122;5.404;2023-03-04T07:02:57;102726.44;;;4.75;87.36
71974;BME280;59840;52.122;5.404;2023-03-04T07:05:23;102729.22;;;4.82;87.40
71974;BME280;59840;52.122;5.404;2023-03-04T07:07:50;102725.28;;;4.86;87.24
71974;BME280;59840;52.122;5.404;2023-03-04T07:10:17;102733.47;;;4.91;86.74
71974;BME280;59840;52.122;5.404;2023-03-04T07:12:44;102736.75;;;4.93;86.76
71974;BME280;59840;52.122;5.404;2023-03-04T07:15:11;102735.75;;;4.86;87.72
71974;BME280;59840;52.122;5.404;2023-03-04T07:17:37;102737.25;;;4.80;88.25
71974;BME280;59840;52.122;5.404;2023-03-04T07:20:04;102741.81;;;4.78;89.35
71974;BME280;59840;52.122;5.404;2023-03-04T07:22:31;102734.16;;;4.85;89.47
71974;BME280;59840;52.122;5.404;2023-03-04T07:24:57;102732.50;;;4.92;88.82
71974;BME280;59840;52.122;5.404;2023-03-04T07:27:24;102729.56;;;4.95;88.96
71974;BME280;59840;52.122;5.404;2023-03-04T07:29:50;102737.75;;;5.00;89.08
71974;BME280;59840;52.122;5.404;2023-03-04T07:32:17;102736.63;;;5.11;88.74
71974;BME280;59840;52.122;5.404;2023-03-04T07:34:44;102730.44;;;5.20;88.53
71974;BME280;59840;52.122;5.404;2023-03-04T07:37:10;102738.75;;;5.23;89.08
71974;BME280;59840;52.122;5.404;2023-03-04T07:39:37;102741.56;;;5.30;88.52
71974;BME280;59840;52.122;5.404;2023-03-04T07:42:03;102742.69;;;5.27;89.02
71974;BME280;59840;52.122;5.404;2023-03-04T07:44:30;102743.69;;;5.26;89.17
71974;BME280;59840;52.122;5.404;2023-03-04T07:46:56;102741.56;;;5.30;89.09
71974;BME280;59840;52.122;5.404;2023-03-04T07:49:23;102744.50;;;5.35;88.54
71974;BME280;59840;52.122;5.404;2023-03-04T07:51:49;102740.09;;;5.44;88.92
71974;BME280;59840;52.122;5.404;2023-03-04T07:54:16;102741.22;;;5.57;88.70
71974;BME280;59840;52.122;5.404;2023-03-04T07:56:45;102744.16;;;5.62;88.28
71974;BME280;59840;52.122;5.404;2023-03-04T07:59:11;102746.13;;;5.77;87.99
71974;BME280;59840;52.122;5.404;2023-03-04T08:01:38;102746.78;;;5.87;87.28
71974;BME280;59840;52.122;5.404;2023-03-04T08:04:06;102746.31;;;5.83;87.35
71974;BME280;59840;52.122;5.404;2023-03-04T08:06:33;102750.88;;;5.97;87.24
71974;BME280;59840;52.122;5.404;2023-03-04T08:13:15;102755.59;;;6.10;86.69
71974;BME280;59840;52.122;5.404;2023-03-04T08:39:03;102767.41;;;6.14;89.06
71974;BME280;59840;52.122;5.404;2023-03-04T08:53:46;102761.88;;;6.48;87.04
71974;BME280;59840;52.122;5.404;2023-03-04T10:32:44;102715.19;;;7.43;85.10
71974;BME280;59840;52.122;5.404;2023-03-04T11:41:03;102703.72;;;6.45;95.30
71974;BME280;59840;52.122;5.404;2023-03-04T11:43:42;102718.50;;;6.68;95.70
71974;BME280;59840;52.122;5.404;2023-03-04T12:07:43;102664.22;;;8.26;88.72
71974;BME280;59840;52.122;5.404;2023-03-04T12:21:16;102666.34;;;7.34;85.66
71974;BME280;59840;52.122;5.404;2023-03-04T12:40:46;102648.66;;;7.80;85.33
71974;BME280;59840;52.122;5.404;2023-03-04T12:43:29;102644.31;;;7.87;83.13
71974;BME280;59840;52.122;5.404;2023-03-04T12:51:51;102647.38;;;8.05;78.91
71974;BME280;59840;52.122;5.404;2023-03-04T12:54:50;102632.03;;;8.09;79.06
71974;BME280;59840;52.122;5.404;2023-03-04T12:57:21;102632.94;;;8.16;78.47
71974;BME280;59840;52.122;5.404;2023-03-04T13:02:49;102614.91;;;8.13;77.91
71974;BME280;59840;52.122;5.404;2023-03-04T13:16:38;102639.53;;;6.86;83.50
71974;BME280;59840;52.122;5.404;2023-03-04T13:19:44;102637.53;;;6.65;85.50
71974;BME280;59840;52.122;5.404;2023-03-04T13:22:59;102639.28;;;6.50;86.67
71974;BME280;59840;52.122;5.404;2023-03-04T13:43:50;102622.63;;;6.89;82.63
71974;BME280;59840;52.122;5.404;2023-03-04T13:51:39;102614.41;;;7.06;83.74
71974;BME280;59840;52.122;5.404;2023-03-04T13:56:46;102606.94;;;7.18;81.93
71974;BME280;59840;52.122;5.404;2023-03-04T13:59:49;102598.91;;;7.20;82.49
71974;BME280;59840;52.122;5.404;2023-03-04T14:02:21;102607.13;;;6.94;79.89
71974;BME280;59840;52.122;5.404;2023-03-04T14:10:19;102607.91;;;6.80;76.21
71974;BME280;59840;52.122;5.404;2023-03-04T14:12:49;102602.31;;;6.83;75.36
71974;BME280;59840;52.122;5.404;2023-03-04T14:15:25;102606.13;;;6.80;76.17
71974;BME280;59840;52.122;5.404;2023-03-04T14:17:57;102586.59;;;6.83;76.51
71974;BME280;59840;52.122;5.404;2023-03-04T14:22:53;102596.25;;;6.82;76.57
71974;BME280;59840;52.122;5.404;2023-03-04T14:25:30;102585.88;;;6.89;76.43
71974;BME280;59840;52.122;5.404;2023-03-04T14:28:11;102598.38;;;6.87;76.27
71974;BME280;59840;52.122;5.404;2023-03-04T14:30:39;102585.59;;;6.84;75.32
71974;BME280;59840;52.122;5.404;2023-03-04T14:33:20;102597.44;;;6.80;75.01
71974;BME280;59840;52.122;5.404;2023-03-04T14:35:50;102587.16;;;6.70;75.30
71974;BME280;59840;52.122;5.404;2023-03-04T14:40:52;102579.88;;;6.80;74.54
71974;BME280;59840;52.122;5.404;2023-03-04T14:43:22;102581.03;;;6.78;74.55
71974;BME280;59840;52.122;5.404;2023-03-04T14:45:52;102572.72;;;6.74;73.96
71974;BME280;59840;52.122;5.404;2023-03-04T14:50:47;102574.22;;;6.68;74.95
71974;BME280;59840;52.122;5.404;2023-03-04T14:53:17;102565.38;;;6.69;74.43
71974;BME280;59840;52.122;5.404;2023-03-04T14:56:13;102558.13;;;6.71;75.17
71974;BME280;59840;52.122;5.404;2023-03-04T14:58:54;102557.16;;;6.72;74.64
71974;BME280;59840;52.122;5.404;2023-03-04T15:01:36;102563.84;;;6.75;75.54
71974;BME280;59840;52.122;5.404;2023-03-04T15:04:06;102567.63;;;6.72;75.04
71974;BME280;59840;52.122;5.404;2023-03-04T15:06:38;102558.94;;;6.72;76.29
71974;BME280;59840;52.122;5.404;2023-03-04T15:09:15;102570.22;;;6.58;77.37
71974;BME280;59840;52.122;5.404;2023-03-04T15:11:50;102560.56;;;6.58;78.35
71974;BME280;59840;52.122;5.404;2023-03-04T15:14:47;102571.44;;;6.47;78.73
71974;BME280;59840;52.122;5.404;2023-03-04T15:22:35;102553.13;;;6.39;79.69
71974;BME280;59840;52.122;5.404;2023-03-04T15:25:01;102552.78;;;6.42;80.08
71974;BME280;59840;52.122;5.404;2023-03-04T15:27:29;102558.50;;;6.46;78.79
71974;BME280;59840;52.122;5.404;2023-03-04T15:29:57;102558.91;;;6.34;78.63
71974;BME280;59840;52.122;5.404;2023-03-04T15:32:25;102558.72;;;6.36;79.26
71974;BME280;59840;52.122;5.404;2023-03-04T15:34:52;102557.38;;;6.40;78.21
71974;BME280;59840;52.122;5.404;2023-03-04T15:37:25;102553.47;;;6.36;78.80
71974;BME280;59840;52.122;5.404;2023-03-04T15:39:54;102543.81;;;6.36;79.03
71974;BME280;59840;52.122;5.404;2023-03-04T15:42:22;102545.78;;;6.34;79.25
71974;BME280;59840;52.122;5.404;2023-03-04T15:44:48;102550.03;;;6.35;78.63
71974;BME280;59840;52.122;5.404;2023-03-04T15:47:15;102543.81;;;6.36;78.73
71974;BME280;59840;52.122;5.404;2023-03-04T15:49:43;102538.41;;;6.38;78.76
71974;BME280;59840;52.122;5.404;2023-03-04T15:52:16;102537.41;;;6.39;79.59
71974;BME280;59840;52.122;5.404;2023-03-04T15:54:44;102543.13;;;6.43;79.22
71974;BME280;59840;52.122;5.404;2023-03-04T15:57:25;102539.22;;;6.38;78.77
71974;BME280;59840;52.122;5.404;2023-03-04T15:59:52;102537.56;;;6.37;78.16
71974;BME280;59840;52.122;5.404;2023-03-04T16:02:24;102536.13;;;6.35;78.94
71974;BME280;59840;52.122;5.404;2023-03-04T16:04:53;102531.00;;;6.42;78.48
71974;BME280;59840;52.122;5.404;2023-03-04T16:07:23;102528.56;;;6.40;77.57
71974;BME280;59840;52.122;5.404;2023-03-04T16:09:55;102530.34;;;6.39;77.70
71974;BME280;59840;52.122;5.404;2023-03-04T16:12:25;102527.72;;;6.39;77.75
71974;BME280;59840;52.122;5.404;2023-03-04T16:14:52;102524.66;;;6.36;76.65
71974;BME280;59840;52.122;5.404;2023-03-04T16:17:18;102528.59;;;6.32;76.32
71974;BME280;59840;52.122;5.404;2023-03-04T16:19:45;102526.31;;;6.29;76.06
71974;BME280;59840;52.122;5.404;2023-03-04T16:22:14;102525.84;;;6.25;76.21
71974;BME280;59840;52.122;5.404;2023-03-04T16:24:41;102522.78;;;6.22;77.06
71974;BME280;59840;52.122;5.404;2023-03-04T16:27:15;102513.66;;;6.18;76.46
71974;BME280;59840;52.122;5.404;2023-03-04T16:29:43;102521.69;;;6.16;76.25
71974;BME280;59840;52.122;5.404;2023-03-04T16:32:09;102528.72;;;6.16;76.07
71974;BME280;59840;52.122;5.404;2023-03-04T16:34:36;102523.47;;;6.16;76.86
71974;BME280;59840;52.122;5.404;2023-03-04T16:37:19;102529.72;;;6.15;75.92
71974;BME280;59840;52.122;5.404;2023-03-04T16:39:46;102521.22;;;6.13;76.51
71974;BME280;59840;52.122;5.404;2023-03-04T16:42:15;102521.38;;;6.11;75.77
71974;BME280;59840;52.122;5.404;2023-03-04T16:44:45;102519.75;;;6.10;77.07
71974;BME280;59840;52.122;5.404;2023-03-04T16:47:11;102530.41;;;6.09;76.42
71974;BME280;59840;52.122;5.404;2023-03-04T16:49:38;102528.75;;;6.08;76.66
71974;BME280;59840;52.122;5.404;2023-03-04T16:52:06;102524.84;;;6.03;75.82
71974;BME280;59840;52.122;5.404;2023-03-04T16:54:34;102521.59;;;6.01;75.31
71974;BME280;59840;52.122;5.404;2023-03-04T16:57:01;102521.94;;;5.98;74.71
71974;BME280;59840;52.122;5.404;2023-03-04T16:59:28;102517.84;;;5.96;75.22
71974;BME280;59840;52.122;5.404;2023-03-04T17:01:55;102525.88;;;5.94;74.77
71974;BME280;59840;52.122;5.404;2023-03-04T17:04:23;102528.84;;;5.91;74.53
71974;BME280;59840;52.122;5.404;2023-03-04T17:06:50;102526.56;;;5.88;75.33
71974;BME280;59840;52.122;5.404;2023-03-04T17:09:16;102529.69;;;5.84;75.75
71974;BME280;59840;52.122;5.404;2023-03-04T17:11:43;102522.19;;;5.81;76.34
71974;BME280;59840;52.122;5.404;2023-03-04T17:14:09;102521.69;;;5.77;76.53
71974;BME280;59840;52.122;5.404;2023-03-04T17:16:36;102527.09;;;5.76;76.88
71974;BME280;59840;52.122;5.404;2023-03-04T17:19:02;102529.91;;;5.74;77.40
71974;BME280;59840;52.122;5.404;2023-03-04T17:22:05;102524.00;;;5.72;77.86
71974;BME280;59840;52.122;5.404;2023-03-04T17:24:32;102528.94;;;5.67;78.12
71974;BME280;59840;52.122;5.404;2023-03-04T17:26:58;102541.72;;;5.62;78.12
71974;BME280;59840;52.122;5.404;2023-03-04T17:29:25;102533.91;;;5.54;78.52
71974;BME280;59840;52.122;5.404;2023-03-04T17:31:51;102542.44;;;5.48;78.64
71974;BME280;59840;52.122;5.404;2023-03-04T17:34:18;102541.47;;;5.41;79.22
71974;BME280;59840;52.122;5.404;2023-03-04T17:36:44;102537.72;;;5.35;79.67
71974;BME280;59840;52.122;5.404;2023-03-04T17:39:11;102541.81;;;5.29;80.41
71974;BME280;59840;52.122;5.404;2023-03-04T17:41:38;102542.97;;;5.27;80.54
71974;BME280;59840;52.122;5.404;2023-03-04T17:44:04;102549.03;;;5.27;80.84
71974;BME280;59840;52.122;5.404;2023-03-04T17:46:33;102562.94;;;5.28;81.08
71974;BME280;59840;52.122;5.404;2023-03-04T17:48:59;102554.91;;;5.29;81.29
71974;BME280;59840;52.122;5.404;2023-03-04T17:51:35;102562.94;;;5.28;81.55
71974;BME280;59840;52.122;5.404;2023-03-04T17:54:03;102564.41;;;5.22;81.80
71974;BME280;59840;52.122;5.404;2023-03-04T17:56:32;102561.13;;;5.20;81.99
71974;BME280;59840;52.122;5.404;2023-03-04T17:59:00;102550.22;;;5.17;81.92
71974;BME280;59840;52.122;5.404;2023-03-04T18:01:27;102559.38;;;5.13;82.18
71974;BME280;59840;52.122;5.404;2023-03-04T18:03:54;102555.13;;;5.12;82.43
71974;BME280;59840;52.122;5.404;2023-03-04T18:06:21;102560.53;;;5.10;82.61
71974;BME280;59840;52.122;5.404;2023-03-04T18:08:51;102556.44;;;5.08;82.91
71974;BME280;59840;52.122;5.404;2023-03-04T18:11:19;102560.69;;;5.09;83.00
71974;BME280;59840;52.122;5.404;2023-03-04T18:13:47;102565.91;;;5.09;82.75
71974;BME280;59840;52.122;5.404;2023-03-04T18:16:14;102566.09;;;5.07;82.00
71974;BME280;59840;52.122;5.404;2023-03-04T18:18:44;102571.16;;;5.09;82.90
71974;BME280;59840;52.122;5.404;2023-03-04T18:21:11;102570.34;;;5.08;82.74
71974;BME280;59840;52.122;5.404;2023-03-04T18:23:38;102574.91;;;5.06;81.99
71974;BME280;59840;52.122;5.404;2023-03-04T18:26:05;102568.03;;;5.05;82.84
71974;BME280;59840;52.122;5.404;2023-03-04T18:28:32;102567.22;;;5.04;82.68